sensor_id;sensor_type;location;lat;lon;timestamp;pressure;altitude;pressure_sealevel;temperature;humidity
25947;BME280;13745;51.470;9.894;2022-08-30T00:01:51;99889.88;;;17.33;58.12
25947;BME280;13745;51.470;9.894;2022-08-30T00:04:38;99892.78;;;17.28;58.41
25947;BME280;13745;51.470;9.894;2022-08-30T00:07:24;99882.81;;;17.24;58.51
25947;BME280;13745;51.470;9.894;2022-08-30T00:10:09;99887.66;;;17.18;58.60
25947;BME280;13745;51.470;9.894;2022-08-30T00:12:56;99886.69;;;17.14;58.55
25947;BME280;13745;51.470;9.894;2022-08-30T00:15:42;99896.50;;;17.15;58.68
25947;BME280;13745;51.470;9.894;2022-08-30T00:18:28;99892.16;;;17.14;58.76
25947;BME280;13745;51.470;9.894;2022-08-30T00:21:16;99889.75;;;17.13;58.89
25947;BME280;13745;51.470;9.894;2022-08-30T00:24:02;99882.84;;;17.07;59.04
25947;BME280;13745;51.470;9.894;2022-08-30T00:26:48;99879.97;;;17.04;58.97
25947;BME280;13745;51.470;9.894;2022-08-30T00:29:34;99876.22;;;17.00;59.18
25947;BME280;13745;51.470;9.894;2022-08-30T00:32:20;99877.84;;;16.92;59.32
25947;BME280;13745;51.470;9.894;2022-08-30T00:35:08;99882.34;;;16.88;59.30
25947;BME280;13745;51.470;9.894;2022-08-30T00:37:55;99883.78;;;16.86;59.29
25947;BME280;13745;51.470;9.894;2022-08-30T00:40:42;99889.91;;;16.83;59.21
25947;BME280;13745;51.470;9.894;2022-08-30T00:43:30;99892.81;;;16.78;59.21
25947;BME280;13745;51.470;9.894;2022-08-30T00:46:17;99886.22;;;16.71;59.01
25947;BME280;13745;51.470;9.894;2022-08-30T00:49:06;99888.47;;;16.60;59.19
25947;BME280;13745;51.470;9.894;2022-08-30T00:51:52;99885.41;;;16.54;59.14
25947;BME280;13745;51.470;9.894;2022-08-30T00:54:43;99885.41;;;16.54;59.18
25947;BME280;13745;51.470;9.894;2022-08-30T00:57:29;99893.09;;;16.52;59.16
25947;BME280;13745;51.470;9.894;2022-08-30T01:00:16;99891.50;;;16.51;59.37
25947;BME280;13745;51.470;9.894;2022-08-30T01:03:02;99899.22;;;16.49;59.60
25947;BME280;13745;51.470;9.894;2022-08-30T01:05:50;99887.81;;;16.47;59.45
25947;BME280;13745;51.470;9.894;2022-08-30T01:08:36;99903.72;;;16.45;59.65
25947;BME280;13745;51.470;9.894;2022-08-30T01:11:24;99887.97;;;16.42;59.67
25947;BME280;13745;51.470;9.894;2022-08-30T01:14:10;99898.09;;;16.41;59.71
25947;BME280;13745;51.470;9.894;2022-08-30T01:16:56;99888.28;;;16.40;59.86
25947;BME280;13745;51.470;9.894;2022-08-30T01:19:46;99889.91;;;16.41;59.97
25947;BME280;13745;51.470;9.894;2022-08-30T01:22:38;99879.25;;;16.40;60.08
25947;BME280;13745;51.470;9.894;2022-08-30T01:25:29;99883.75;;;16.36;59.96
25947;BME280;13745;51.470;9.894;2022-08-30T01:28:19;99880.56;;;16.34;60.26
25947;BME280;13745;51.470;9.894;2022-08-30T01:31:05;99888.28;;;16.32;60.24
25947;BME280;13745;51.470;9.894;2022-08-30T01:33:52;99889.72;;;16.30;60.23
25947;BME280;13745;51.470;9.894;2022-08-30T01:36:39;99886.97;;;16.21;60.49
25947;BME280;13745;51.470;9.894;2022-08-30T01:39:27;99897.53;;;16.14;60.45
25947;BME280;13745;51.470;9.894;2022-08-30T01:42:16;99897.38;;;16.11;60.50
25947;BME280;13745;51.470;9.894;2022-08-30T01:45:02;99902.34;;;16.09;60.61
25947;BME280;13745;51.470;9.894;2022-08-30T01:47:48;99908.31;;;16.11;60.29
25947;BME280;13745;51.470;9.894;2022-08-30T01:50:34;99904.28;;;16.09;60.52
25947;BME280;13745;51.470;9.894;2022-08-30T01:53:20;99897.84;;;16.05;60.62
25947;BME280;13745;51.470;9.894;2022-08-30T01:56:07;99900.59;;;16.05;60.64
25947;BME280;13745;51.470;9.894;2022-08-30T01:58:55;99900.91;;;16.03;60.97
25947;BME280;13745;51.470;9.894;2022-08-30T02:01:41;99911.53;;;16.05;61.14
25947;BME280;13745;51.470;9.894;2022-08-30T02:04:26;99908.78;;;16.05;61.37
25947;BME280;13745;51.470;9.894;2022-08-30T02:07:12;99901.72;;;16.04;61.19
25947;BME280;13745;51.470;9.894;2022-08-30T02:09:58;99903.09;;;16.01;61.47
25947;BME280;13745;51.470;9.894;2022-08-30T02:12:44;99900.38;;;16.01;61.50
25947;BME280;13745;51.470;9.894;2022-08-30T02:15:31;99903.91;;;16.02;61.54
25947;BME280;13745;51.470;9.894;2022-08-30T02:18:19;99906.63;;;16.02;61.72
25947;BME280;13745;51.470;9.894;2022-08-30T02:21:07;99908.28;;;16.03;61.65
25947;BME280;13745;51.470;9.894;2022-08-30T02:23:53;99897.06;;;16.04;61.91
25947;BME280;13745;51.470;9.894;2022-08-30T02:26:39;99892.88;;;16.07;61.88
25947;BME280;13745;51.470;9.894;2022-08-30T02:29:26;99887.91;;;16.09;62.09
25947;BME280;13745;51.470;9.894;2022-08-30T02:32:13;99883.72;;;16.11;62.29
25947;BME280;13745;51.470;9.894;2022-08-30T02:34:59;99888.06;;;16.12;62.35
25947;BME280;13745;51.470;9.894;2022-08-30T02:37:45;99895.78;;;16.10;62.43
25947;BME280;13745;51.470;9.894;2022-08-30T02:40:30;99895.94;;;16.05;62.42
25947;BME280;13745;51.470;9.894;2022-08-30T02:43:16;99889.66;;;16.05;62.33
25947;BME280;13745;51.470;9.894;2022-08-30T02:46:03;99887.72;;;16.05;62.42
25947;BME280;13745;51.470;9.894;2022-08-30T02:48:50;99885.47;;;16.07;62.45
25947;BME280;13745;51.470;9.894;2022-08-30T02:51:36;99891.75;;;16.08;62.69
25947;BME280;13745;51.470;9.894;2022-08-30T02:54:23;99897.34;;;16.03;62.77
25947;BME280;13745;51.470;9.894;2022-08-30T02:57:09;99892.81;;;15.98;62.84
25947;BME280;13745;51.470;9.894;2022-08-30T02:59:57;99892.66;;;15.95;62.45
25947;BME280;13745;51.470;9.894;2022-08-30T03:02:43;99894.41;;;15.91;62.34
25947;BME280;13745;51.470;9.894;2022-08-30T03:05:30;99894.38;;;15.83;62.33
25947;BME280;13745;51.470;9.894;2022-08-30T03:08:16;99886.34;;;15.78;62.42
25947;BME280;13745;51.470;9.894;2022-08-30T03:11:02;99888.75;;;15.79;62.52
25947;BME280;13745;51.470;9.894;2022-08-30T03:13:48;99889.06;;;15.78;62.43
25947;BME280;13745;51.470;9.894;2022-08-30T03:16:34;99890.97;;;15.77;62.59
25947;BME280;13745;51.470;9.894;2022-08-30T03:19:20;99881.69;;;15.78;62.85
25947;BME280;13745;51.470;9.894;2022-08-30T03:22:07;99880.69;;;15.74;62.77
25947;BME280;13745;51.470;9.894;2022-08-30T03:24:53;99884.03;;;15.71;62.62
25947;BME280;13745;51.470;9.894;2022-08-30T03:27:41;99885.97;;;15.71;63.00
25947;BME280;13745;51.470;9.894;2022-08-30T03:30:27;99880.81;;;15.69;62.92
25947;BME280;13745;51.470;9.894;2022-08-30T03:33:13;99882.75;;;15.69;63.07
25947;BME280;13745;51.470;9.894;2022-08-30T03:35:59;99871.19;;;15.72;63.01
25947;BME280;13745;51.470;9.894;2022-08-30T03:38:46;99879.06;;;15.73;63.42
25947;BME280;13745;51.470;9.894;2022-08-30T03:41:33;99886.28;;;15.69;63.27
25947;BME280;13745;51.470;9.894;2022-08-30T03:44:19;99882.75;;;15.69;63.52
25947;BME280;13745;51.470;9.894;2022-08-30T03:47:05;99881.94;;;15.68;63.05
25947;BME280;13745;51.470;9.894;2022-08-30T03:49:51;99890.47;;;15.67;63.24
25947;BME280;13745;51.470;9.894;2022-08-30T03:52:37;99888.53;;;15.68;63.05
25947;BME280;13745;51.470;9.894;2022-08-30T03:55:24;99894.59;;;15.65;63.28
25947;BME280;13745;51.470;9.894;2022-08-30T03:58:11;99890.09;;;15.60;63.34
25947;BME280;13745;51.470;9.894;2022-08-30T04:00:57;99894.25;;;15.58;63.63
25947;BME280;13745;51.470;9.894;2022-08-30T04:03:43;99900.47;;;15.50;63.60
25947;BME280;13745;51.470;9.894;2022-08-30T04:06:29;99901.09;;;15.47;63.53
25947;BME280;13745;51.470;9.894;2022-08-30T04:09:15;99906.56;;;15.47;63.56
25947;BME280;13745;51.470;9.894;2022-08-30T04:12:03;99900.78;;;15.48;63.78
25947;BME280;13745;51.470;9.894;2022-08-30T04:14:49;99905.44;;;15.48;63.43
25947;BME280;13745;51.470;9.894;2022-08-30T04:17:35;99898.38;;;15.47;63.83
25947;BME280;13745;51.470;9.894;2022-08-30T04:20:21;99900.78;;;15.48;64.02
25947;BME280;13745;51.470;9.894;2022-08-30T04:23:07;99888.75;;;15.49;64.02
25947;BME280;13745;51.470;9.894;2022-08-30T04:25:54;99899.88;;;15.53;63.87
25947;BME280;13745;51.470;9.894;2022-08-30T04:28:41;99906.94;;;15.54;64.21
25947;BME280;13745;51.470;9.894;2022-08-30T04:31:27;99897.25;;;15.48;64.03
25947;BME280;13745;51.470;9.894;2022-08-30T04:34:13;99891.31;;;15.46;64.00
25947;BME280;13745;51.470;9.894;2022-08-30T04:36:59;99892.44;;;15.45;64.06
25947;BME280;13745;51.470;9.894;2022-08-30T04:39:45;99908.63;;;15.42;63.74
25947;BME280;13745;51.470;9.894;2022-08-30T04:42:33;99901.84;;;15.39;64.12
25947;BME280;13745;51.470;9.894;2022-08-30T04:45:21;99910.03;;;15.39;63.81
25947;BME280;13745;51.470;9.894;2022-08-30T04:48:07;99908.44;;;15.38;63.51
25947;BME280;13745;51.470;9.894;2022-08-30T04:50:53;99916.13;;;15.36;63.85
25947;BME280;13745;51.470;9.894;2022-08-30T04:53:40;99916.31;;;15.40;63.90
25947;BME280;13745;51.470;9.894;2022-08-30T04:56:26;99927.44;;;15.43;63.81
25947;BME280;13745;51.470;9.894;2022-08-30T04:59:12;99926.78;;;15.46;63.80
25947;BME280;13745;51.470;9.894;2022-08-30T05:01:59;99929.38;;;15.51;63.63
25947;BME280;13745;51.470;9.894;2022-08-30T05:04:45;99930.38;;;15.55;63.83
25947;BME280;13745;51.470;9.894;2022-08-30T05:07:44;99930.72;;;15.62;63.66
25947;BME280;13745;51.470;9.894;2022-08-30T05:10:31;99924.19;;;15.71;63.58
25947;BME280;13745;51.470;9.894;2022-08-30T05:13:18;99934.03;;;15.80;63.59
25947;BME280;13745;51.470;9.894;2022-08-30T05:16:06;99944.66;;;15.90;63.66
25947;BME280;13745;51.470;9.894;2022-08-30T05:18:54;99938.31;;;16.03;63.48
25947;BME280;13745;51.470;9.894;2022-08-30T05:21:39;99940.44;;;16.14;63.46
25947;BME280;13745;51.470;9.894;2022-08-30T05:24:25;99941.47;;;16.26;63.56
25947;BME280;13745;51.470;9.894;2022-08-30T05:27:11;99937.63;;;16.36;63.53
25947;BME280;13745;51.470;9.894;2022-08-30T05:29:57;99934.59;;;16.45;63.35
25947;BME280;13745;51.470;9.894;2022-08-30T05:32:43;99936.22;;;16.55;63.18
25947;BME280;13745;51.470;9.894;2022-08-30T05:35:30;99937.03;;;16.63;63.18
25947;BME280;13745;51.470;9.894;2022-08-30T05:38:16;99941.72;;;16.71;63.29
25947;BME280;13745;51.470;9.894;2022-08-30T05:41:03;99946.88;;;16.81;63.15
25947;BME280;13745;51.470;9.894;2022-08-30T05:43:51;99949.94;;;16.96;63.00
25947;BME280;13745;51.470;9.894;2022-08-30T05:46:37;99953.66;;;17.08;62.54
25947;BME280;13745;51.470;9.894;2022-08-30T05:49:26;99953.97;;;17.24;62.42
25947;BME280;13745;51.470;9.894;2022-08-30T05:52:14;99953.97;;;17.32;62.12
25947;BME280;13745;51.470;9.894;2022-08-30T05:55:01;99948.31;;;17.37;62.11
25947;BME280;13745;51.470;9.894;2022-08-30T05:57:48;99947.50;;;17.45;62.02
25947;BME280;13745;51.470;9.894;2022-08-30T06:00:34;99946.66;;;17.52;62.00
25947;BME280;13745;51.470;9.894;2022-08-30T06:03:21;99952.00;;;17.57;61.97
25947;BME280;13745;51.470;9.894;2022-08-30T06:06:07;99951.97;;;17.66;61.93
25947;BME280;13745;51.470;9.894;2022-08-30T06:08:55;99957.41;;;17.74;61.67
25947;BME280;13745;51.470;9.894;2022-08-30T06:11:41;99955.47;;;17.83;61.52
25947;BME280;13745;51.470;9.894;2022-08-30T06:14:27;99954.81;;;17.86;61.48
25947;BME280;13745;51.470;9.894;2022-08-30T06:17:13;99956.25;;;17.92;61.58
25947;BME280;13745;51.470;9.894;2022-08-30T06:19:59;99955.28;;;17.96;61.48
25947;BME280;13745;51.470;9.894;2022-08-30T06:22:45;99963.31;;;18.01;61.51
25947;BME280;13745;51.470;9.894;2022-08-30T06:25:34;99965.72;;;18.02;61.59
25947;BME280;13745;51.470;9.894;2022-08-30T06:28:19;99961.22;;;18.06;61.70
25947;BME280;13745;51.470;9.894;2022-08-30T06:31:06;99961.50;;;18.13;61.69
25947;BME280;13745;51.470;9.894;2022-08-30T06:33:52;99959.53;;;18.22;61.68
25947;BME280;13745;51.470;9.894;2022-08-30T06:36:38;99966.28;;;18.24;61.80
25947;BME280;13745;51.470;9.894;2022-08-30T06:39:24;99968.22;;;18.24;61.96
25947;BME280;13745;51.470;9.894;2022-08-30T06:42:11;99968.22;;;18.24;62.14
25947;BME280;13745;51.470;9.894;2022-08-30T06:44:57;99974.16;;;18.26;62.24
25947;BME280;13745;51.470;9.894;2022-08-30T06:47:43;99970.00;;;18.28;62.23
25947;BME280;13745;51.470;9.894;2022-08-30T06:50:28;99977.69;;;18.35;62.15
25947;BME280;13745;51.470;9.894;2022-08-30T06:53:15;99980.72;;;18.41;62.08
25947;BME280;13745;51.470;9.894;2022-08-30T06:56:03;99974.38;;;18.49;61.81
25947;BME280;13745;51.470;9.894;2022-08-30T06:58:52;99975.13;;;18.58;61.77
25947;BME280;13745;51.470;9.894;2022-08-30T07:01:38;99970.50;;;18.79;61.35
25947;BME280;13745;51.470;9.894;2022-08-30T07:04:24;99974.41;;;18.98;60.97
25947;BME280;13745;51.470;9.894;2022-08-30T07:07:10;99981.28;;;19.24;60.56
25947;BME280;13745;51.470;9.894;2022-08-30T07:09:56;99986.50;;;19.57;59.99
25947;BME280;13745;51.470;9.894;2022-08-30T07:12:42;99983.84;;;19.80;59.49
25947;BME280;13745;51.470;9.894;2022-08-30T07:15:29;99991.13;;;20.08;58.84
25947;BME280;13745;51.470;9.894;2022-08-30T07:18:15;99981.88;;;20.36;58.20
25947;BME280;13745;51.470;9.894;2022-08-30T07:21:25;99990.38;;;20.43;58.16
25947;BME280;13745;51.470;9.894;2022-08-30T07:24:12;99993.16;;;20.55;57.83
25947;BME280;13745;51.470;9.894;2022-08-30T07:26:57;99990.59;;;20.73;57.52
25947;BME280;13745;51.470;9.894;2022-08-30T07:29:44;99989.41;;;20.98;57.19
25947;BME280;13745;51.470;9.894;2022-08-30T07:32:31;99997.88;;;21.16;56.89
25947;BME280;13745;51.470;9.894;2022-08-30T07:35:17;99997.63;;;21.33;56.58
25947;BME280;13745;51.470;9.894;2022-08-30T07:38:03;99996.44;;;21.46;56.57
25947;BME280;13745;51.470;9.894;2022-08-30T07:40:49;99996.22;;;21.66;56.25
25947;BME280;13745;51.470;9.894;2022-08-30T07:43:35;99998.50;;;21.91;55.82
25947;BME280;13745;51.470;9.894;2022-08-30T07:46:22;100000.84;;;22.31;55.09
25947;BME280;13745;51.470;9.894;2022-08-30T07:49:10;100001.78;;;22.53;54.60
25947;BME280;13745;51.470;9.894;2022-08-30T07:51:57;99994.06;;;22.59;54.55
25947;BME280;13745;51.470;9.894;2022-08-30T07:54:42;99995.22;;;22.73;54.23
25947;BME280;13745;51.470;9.894;2022-08-30T07:57:28;100001.84;;;23.02;53.84
25947;BME280;13745;51.470;9.894;2022-08-30T08:00:17;100002.81;;;23.28;53.39
25947;BME280;13745;51.470;9.894;2022-08-30T08:03:04;99999.78;;;23.33;53.26
25947;BME280;13745;51.470;9.894;2022-08-30T08:05:52;99999.41;;;23.35;53.11
25947;BME280;13745;51.470;9.894;2022-08-30T08:08:40;99994.34;;;23.36;53.35
25947;BME280;13745;51.470;9.894;2022-08-30T08:11:25;99990.28;;;23.49;53.17
25947;BME280;13745;51.470;9.894;2022-08-30T08:14:11;100005.00;;;23.72;52.73
25947;BME280;13745;51.470;9.894;2022-08-30T08:16:57;99999.31;;;23.83;52.28
25947;BME280;13745;51.470;9.894;2022-08-30T08:19:43;99997.56;;;23.76;52.33
25947;BME280;13745;51.470;9.894;2022-08-30T08:22:30;99994.34;;;23.74;52.44
25947;BME280;13745;51.470;9.894;2022-08-30T08:25:16;99997.19;;;23.77;52.19
25947;BME280;13745;51.470;9.894;2022-08-30T08:28:02;99994.91;;;24.01;51.67
25947;BME280;13745;51.470;9.894;2022-08-30T08:30:49;99994.28;;;24.29;51.04
25947;BME280;13745;51.470;9.894;2022-08-30T08:33:34;100002.09;;;24.46;50.73
25947;BME280;13745;51.470;9.894;2022-08-30T08:36:21;100006.13;;;24.52;50.61
25947;BME280;13745;51.470;9.894;2022-08-30T08:39:08;99999.56;;;24.60;50.43
25947;BME280;13745;51.470;9.894;2022-08-30T08:42:01;99996.16;;;24.70;50.16
25947;BME280;13745;51.470;9.894;2022-08-30T08:44:56;100000.38;;;24.82;50.01
25947;BME280;13745;51.470;9.894;2022-08-30T08:47:53;100008.69;;;25.08;49.53
25947;BME280;13745;51.470;9.894;2022-08-30T08:50:41;100002.56;;;25.24;49.15
25947;BME280;13745;51.470;9.894;2022-08-30T08:53:52;99999.38;;;25.48;48.79
25947;BME280;13745;51.470;9.894;2022-08-30T08:56:41;100003.16;;;25.65;48.43
25947;BME280;13745;51.470;9.894;2022-08-30T08:59:27;100006.16;;;25.83;48.13
25947;BME280;13745;51.470;9.894;2022-08-30T09:02:22;100007.22;;;26.04;47.68
25947;BME280;13745;51.470;9.894;2022-08-30T09:05:10;100004.66;;;26.24;47.29
25947;BME280;13745;51.470;9.894;2022-08-30T09:08:00;100008.41;;;26.42;46.79
25947;BME280;13745;51.470;9.894;2022-08-30T09:10:51;99993.53;;;26.63;46.54
25947;BME280;13745;51.470;9.894;2022-08-30T09:13:41;99991.75;;;26.88;46.44
25947;BME280;13745;51.470;9.894;2022-08-30T09:16:51;100006.25;;;27.17;45.75
25947;BME280;13745;51.470;9.894;2022-08-30T09:19:40;100000.19;;;27.58;45.34
25947;BME280;13745;51.470;9.894;2022-08-30T09:22:31;100003.19;;;28.23;44.62
25947;BME280;13745;51.470;9.894;2022-08-30T09:25:22;100010.78;;;29.42;43.23
25947;BME280;13745;51.470;9.894;2022-08-30T09:28:11;100008.78;;;32.61;37.63
25947;BME280;13745;51.470;9.894;2022-08-30T09:31:03;100002.84;;;36.71;31.25
25947;BME280;13745;51.470;9.894;2022-08-30T09:33:53;100008.22;;;39.13;28.10
25947;BME280;13745;51.470;9.894;2022-08-30T09:36:41;100002.53;;;41.17;25.71
25947;BME280;13745;51.470;9.894;2022-08-30T09:39:32;100007.28;;;42.60;24.22
25947;BME280;13745;51.470;9.894;2022-08-30T09:42:22;100005.06;;;43.32;23.16
25947;BME280;13745;51.470;9.894;2022-08-30T09:45:31;99995.50;;;44.18;22.52
25947;BME280;13745;51.470;9.894;2022-08-30T09:48:38;100000.25;;;45.12;21.56
25947;BME280;13745;51.470;9.894;2022-08-30T09:51:45;99996.69;;;45.80;20.93
25947;BME280;13745;51.470;9.894;2022-08-30T09:54:41;99994.19;;;46.09;20.34
25947;BME280;13745;51.470;9.894;2022-08-30T09:57:33;99998.44;;;45.66;20.50
25947;BME280;13745;51.470;9.894;2022-08-30T10:00:23;99992.63;;;45.04;20.74
25947;BME280;13745;51.470;9.894;2022-08-30T10:03:21;99981.94;;;44.99;20.63
25947;BME280;13745;51.470;9.894;2022-08-30T10:06:19;99982.03;;;45.20;20.37
25947;BME280;13745;51.470;9.894;2022-08-30T10:09:18;99978.97;;;45.76;19.88
25947;BME280;13745;51.470;9.894;2022-08-30T10:12:11;99981.38;;;45.99;19.32
25947;BME280;13745;51.470;9.894;2022-08-30T10:15:05;99982.22;;;46.69;19.02
25947;BME280;13745;51.470;9.894;2022-08-30T10:17:55;99973.91;;;46.87;18.87
25947;BME280;13745;51.470;9.894;2022-08-30T10:20:54;99964.28;;;48.07;17.94
25947;BME280;13745;51.470;9.894;2022-08-30T10:23:44;99968.75;;;48.77;17.26
25947;BME280;13745;51.470;9.894;2022-08-30T10:26:35;99967.69;;;49.50;16.76
25947;BME280;13745;51.470;9.894;2022-08-30T10:29:28;99960.91;;;50.38;15.91
25947;BME280;13745;51.470;9.894;2022-08-30T10:32:17;99958.19;;;50.89;16.72
25947;BME280;13745;51.470;9.894;2022-08-30T10:35:07;99955.84;;;50.88;15.85
25947;BME280;13745;51.470;9.894;2022-08-30T10:37:57;99953.84;;;49.85;16.41
25947;BME280;13745;51.470;9.894;2022-08-30T10:40:49;99959.56;;;51.01;15.37
25947;BME280;13745;51.470;9.894;2022-08-30T10:44:00;99957.94;;;52.22;14.22
25947;BME280;13745;51.470;9.894;2022-08-30T10:47:03;99950.84;;;52.43;14.68
25947;BME280;13745;51.470;9.894;2022-08-30T10:49:56;99952.78;;;52.08;14.29
25947;BME280;13745;51.470;9.894;2022-08-30T10:52:51;99944.78;;;52.01;14.34
25947;BME280;13745;51.470;9.894;2022-08-30T10:55:43;99938.84;;;51.73;13.83
25947;BME280;13745;51.470;9.894;2022-08-30T10:58:32;99947.66;;;50.61;14.65
25947;BME280;13745;51.470;9.894;2022-08-30T11:01:33;99936.34;;;49.18;15.57
25947;BME280;13745;51.470;9.894;2022-08-30T11:07:37;99920.44;;;44.89;18.40
25947;BME280;13745;51.470;9.894;2022-08-30T11:10:40;99913.81;;;43.03;19.74
25947;BME280;13745;51.470;9.894;2022-08-30T11:13:29;99904.38;;;41.73;21.07
25947;BME280;13745;51.470;9.894;2022-08-30T11:16:17;99892.94;;;40.44;22.38
25947;BME280;13745;51.470;9.894;2022-08-30T11:19:14;99888.16;;;39.42;23.11
25947;BME280;13745;51.470;9.894;2022-08-30T11:22:10;99890.59;;;38.70;23.83
25947;BME280;13745;51.470;9.894;2022-08-30T11:25:04;99882.69;;;38.17;24.39
25947;BME280;13745;51.470;9.894;2022-08-30T11:27:51;99882.22;;;37.68;25.06
25947;BME280;13745;51.470;9.894;2022-08-30T11:30:49;99884.28;;;37.13;25.75
25947;BME280;13745;51.470;9.894;2022-08-30T11:33:43;99873.09;;;36.89;25.94
25947;BME280;13745;51.470;9.894;2022-08-30T11:39:57;99874.84;;;36.50;26.05
25947;BME280;13745;51.470;9.894;2022-08-30T11:42:45;99875.66;;;36.38;26.80
25947;BME280;13745;51.470;9.894;2022-08-30T11:45:47;99875.88;;;36.31;26.55
25947;BME280;13745;51.470;9.894;2022-08-30T11:48:48;99871.81;;;36.07;26.90
25947;BME280;13745;51.470;9.894;2022-08-30T11:51:48;99875.31;;;35.87;27.42
25947;BME280;13745;51.470;9.894;2022-08-30T11:54:43;99865.34;;;35.83;27.21
25947;BME280;13745;51.470;9.894;2022-08-30T11:57:40;99863.78;;;35.82;27.03
25947;BME280;13745;51.470;9.894;2022-08-30T12:00:32;99861.50;;;35.77;27.20
25947;BME280;13745;51.470;9.894;2022-08-30T12:03:29;99860.03;;;35.72;27.09
25947;BME280;13745;51.470;9.894;2022-08-30T12:06:46;99850.44;;;35.58;27.30
25947;BME280;13745;51.470;9.894;2022-08-30T12:09:57;99853.69;;;35.28;27.78
25947;BME280;13745;51.470;9.894;2022-08-30T12:12:52;99851.63;;;35.16;27.77
25947;BME280;13745;51.470;9.894;2022-08-30T12:15:54;99847.78;;;35.11;27.64
25947;BME280;13745;51.470;9.894;2022-08-30T12:18:42;99843.56;;;35.03;28.08
25947;BME280;13745;51.470;9.894;2022-08-30T12:21:31;99838.16;;;34.96;28.37
25947;BME280;13745;51.470;9.894;2022-08-30T12:24:22;99835.84;;;34.91;28.36
25947;BME280;13745;51.470;9.894;2022-08-30T12:27:20;99835.31;;;34.80;28.33
25947;BME280;13745;51.470;9.894;2022-08-30T12:30:08;99838.34;;;34.73;28.68
25947;BME280;13745;51.470;9.894;2022-08-30T12:32:54;99834.13;;;34.66;28.71
25947;BME280;13745;51.470;9.894;2022-08-30T12:35:42;99829.16;;;34.57;28.63
25947;BME280;13745;51.470;9.894;2022-08-30T12:38:28;99832.22;;;34.47;28.80
25947;BME280;13745;51.470;9.894;2022-08-30T12:41:19;99816.94;;;34.32;28.93
25947;BME280;13745;51.470;9.894;2022-08-30T12:44:08;99820.44;;;34.21;29.22
25947;BME280;13745;51.470;9.894;2022-08-30T12:47:00;99819.38;;;34.15;29.13
25947;BME280;13745;51.470;9.894;2022-08-30T12:49:48;99823.97;;;34.09;29.13
25947;BME280;13745;51.470;9.894;2022-08-30T12:52:36;99814.00;;;34.04;29.38
25947;BME280;13745;51.470;9.894;2022-08-30T12:55:26;99818.66;;;33.95;29.20
25947;BME280;13745;51.470;9.894;2022-08-30T12:58:14;99821.03;;;33.81;29.30
25947;BME280;13745;51.470;9.894;2022-08-30T13:01:24;99813.19;;;33.73;29.43
25947;BME280;13745;51.470;9.894;2022-08-30T13:04:14;99815.09;;;33.60;29.75
25947;BME280;13745;51.470;9.894;2022-08-30T13:07:03;99811.19;;;33.54;29.58
25947;BME280;13745;51.470;9.894;2022-08-30T13:09:48;99810.97;;;33.45;29.56
25947;BME280;13745;51.470;9.894;2022-08-30T13:12:34;99805.94;;;33.37;29.84
25947;BME280;13745;51.470;9.894;2022-08-30T13:15:28;99814.81;;;33.35;29.78
25947;BME280;13745;51.470;9.894;2022-08-30T13:18:18;99804.06;;;33.31;29.83
25947;BME280;13745;51.470;9.894;2022-08-30T13:21:19;99801.66;;;33.13;30.13
25947;BME280;13745;51.470;9.894;2022-08-30T13:24:06;99801.13;;;32.99;30.09
25947;BME280;13745;51.470;9.894;2022-08-30T13:26:52;99799.22;;;32.93;30.46
25947;BME280;13745;51.470;9.894;2022-08-30T13:29:38;99802.47;;;32.91;30.43
25947;BME280;13745;51.470;9.894;2022-08-30T13:32:25;99808.00;;;32.76;30.18
25947;BME280;13745;51.470;9.894;2022-08-30T13:35:11;99810.22;;;32.65;30.59
25947;BME280;13745;51.470;9.894;2022-08-30T13:37:59;99807.22;;;32.56;30.64
25947;BME280;13745;51.470;9.894;2022-08-30T13:40:45;99805.56;;;32.55;30.75
25947;BME280;13745;51.470;9.894;2022-08-30T13:43:31;99802.91;;;32.48;30.72
25947;BME280;13745;51.470;9.894;2022-08-30T13:46:18;99795.84;;;32.41;30.74
25947;BME280;13745;51.470;9.894;2022-08-30T13:49:11;99810.28;;;32.39;31.00
25947;BME280;13745;51.470;9.894;2022-08-30T13:52:02;99802.19;;;32.44;30.86
25947;BME280;13745;51.470;9.894;2022-08-30T13:54:48;99795.66;;;32.51;31.08
25947;BME280;13745;51.470;9.894;2022-08-30T13:57:34;99803.28;;;32.50;31.04
25947;BME280;13745;51.470;9.894;2022-08-30T14:00:20;99795.22;;;32.52;31.08
25947;BME280;13745;51.470;9.894;2022-08-30T14:03:06;99802.06;;;32.51;30.88
25947;BME280;13745;51.470;9.894;2022-08-30T14:05:53;99787.84;;;32.39;30.63
25947;BME280;13745;51.470;9.894;2022-08-30T14:08:39;99798.19;;;32.23;30.62
25947;BME280;13745;51.470;9.894;2022-08-30T14:11:25;99800.88;;;32.04;30.78
25947;BME280;13745;51.470;9.894;2022-08-30T14:14:11;99794.25;;;31.95;31.25
25947;BME280;13745;51.470;9.894;2022-08-30T14:16:57;99792.75;;;31.87;31.39
25947;BME280;13745;51.470;9.894;2022-08-30T14:19:43;99794.50;;;31.77;31.34
25947;BME280;13745;51.470;9.894;2022-08-30T14:22:30;99794.06;;;31.56;31.19
25947;BME280;13745;51.470;9.894;2022-08-30T14:25:16;99796.63;;;31.41;31.52
25947;BME280;13745;51.470;9.894;2022-08-30T14:28:02;99799.06;;;31.39;31.57
25947;BME280;13745;51.470;9.894;2022-08-30T14:30:48;99794.31;;;31.36;31.68
25947;BME280;13745;51.470;9.894;2022-08-30T14:33:34;99793.59;;;31.32;31.35
25947;BME280;13745;51.470;9.894;2022-08-30T14:36:20;99787.13;;;31.35;31.55
25947;BME280;13745;51.470;9.894;2022-08-30T14:39:10;99784.63;;;31.40;31.31
25947;BME280;13745;51.470;9.894;2022-08-30T14:41:58;99785.72;;;31.50;31.36
25947;BME280;13745;51.470;9.894;2022-08-30T14:44:44;99782.25;;;31.68;30.88
25947;BME280;13745;51.470;9.894;2022-08-30T14:47:30;99781.63;;;31.80;30.65
25947;BME280;13745;51.470;9.894;2022-08-30T14:50:16;99787.16;;;31.87;30.96
25947;BME280;13745;51.470;9.894;2022-08-30T14:53:03;99781.91;;;31.89;30.76
25947;BME280;13745;51.470;9.894;2022-08-30T14:55:50;99781.53;;;31.87;30.32
25947;BME280;13745;51.470;9.894;2022-08-30T14:58:36;99777.66;;;31.81;30.49
25947;BME280;13745;51.470;9.894;2022-08-30T15:01:22;99792.50;;;31.78;30.74